sensor_id;sensor_type;location;lat;lon;timestamp;P1;durP1;ratioP1;P2;durP2;ratioP2
44899;SDS011;30628;51.188;6.770;2023-06-22T00:01:20;3.75;;;3.42;;
44899;SDS011;30628;51.188;6.770;2023-06-22T00:03:48;4.60;;;3.60;;
44899;SDS011;30628;51.188;6.770;2023-06-22T00:06:14;4.15;;;3.63;;
44899;SDS011;30628;51.188;6.770;2023-06-22T00:08:40;4.35;;;3.47;;
44899;SDS011;30628;51.188;6.770;2023-06-22T00:11:06;3.67;;;3.38;;
44899;SDS011;30628;51.188;6.770;2023-06-22T00:13:32;4.00;;;3.00;;
44899;SDS011;30628;51.188;6.770;2023-06-22T00:15:58;4.60;;;3.17;;
44899;SDS011;30628;51.188;6.770;2023-06-22T00:18:24;3.38;;;2.90;;
44899;SDS011;30628;51.188;6.770;2023-06-22T00:20:54;3.00;;;2.70;;
44899;SDS011;30628;51.188;6.770;2023-06-22T00:23:23;3.05;;;2.80;;
44899;SDS011;30628;51.188;6.770;2023-06-22T00:25:50;4.03;;;3.10;;
44899;SDS011;30628;51.188;6.770;2023-06-22T00:28:16;3.72;;;3.03;;
44899;SDS011;30628;51.188;6.770;2023-06-22T00:30:45;4.13;;;3.13;;
44899;SDS011;30628;51.188;6.770;2023-06-22T00:33:11;3.85;;;3.15;;
44899;SDS011;30628;51.188;6.770;2023-06-22T00:35:38;4.22;;;3.10;;
44899;SDS011;30628;51.188;6.770;2023-06-22T00:38:06;3.83;;;3.20;;
44899;SDS011;30628;51.188;6.770;2023-06-22T00:40:33;3.13;;;2.83;;
44899;SDS011;30628;51.188;6.770;2023-06-22T00:43:00;3.72;;;3.20;;
44899;SDS011;30628;51.188;6.770;2023-06-22T00:45:26;3.83;;;3.42;;
44899;SDS011;30628;51.188;6.770;2023-06-22T00:47:53;34.70;;;31.42;;
44899;SDS011;30628;51.188;6.770;2023-06-22T00:50:22;5.70;;;5.03;;
44899;SDS011;30628;51.188;6.770;2023-06-22T00:52:51;3.55;;;3.25;;
44899;SDS011;30628;51.188;6.770;2023-06-22T00:55:26;3.92;;;3.42;;
44899;SDS011;30628;51.188;6.770;2023-06-22T00:57:53;4.75;;;4.25;;
44899;SDS011;30628;51.188;6.770;2023-06-22T01:00:22;4.70;;;3.80;;
44899;SDS011;30628;51.188;6.770;2023-06-22T01:02:53;5.90;;;3.97;;
44899;SDS011;30628;51.188;6.770;2023-06-22T01:05:19;4.03;;;3.72;;
44899;SDS011;30628;51.188;6.770;2023-06-22T01:16:41;5.45;;;3.92;;
44899;SDS011;30628;51.188;6.770;2023-06-22T01:21:56;6.72;;;4.85;;
44899;SDS011;30628;51.188;6.770;2023-06-22T01:24:27;5.30;;;4.75;;
44899;SDS011;30628;51.188;6.770;2023-06-22T01:30:19;6.78;;;5.70;;
44899;SDS011;30628;51.188;6.770;2023-06-22T01:32:46;6.70;;;5.45;;
44899;SDS011;30628;51.188;6.770;2023-06-22T01:35:14;7.57;;;5.22;;
44899;SDS011;30628;51.188;6.770;2023-06-22T01:37:41;7.28;;;5.10;;
44899;SDS011;30628;51.188;6.770;2023-06-22T01:40:08;6.93;;;5.03;;
44899;SDS011;30628;51.188;6.770;2023-06-22T01:42:35;7.22;;;5.78;;
44899;SDS011;30628;51.188;6.770;2023-06-22T01:45:02;10.98;;;6.07;;
44899;SDS011;30628;51.188;6.770;2023-06-22T01:47:29;5.93;;;5.35;;
44899;SDS011;30628;51.188;6.770;2023-06-22T01:49:55;5.88;;;5.32;;
44899;SDS011;30628;51.188;6.770;2023-06-22T01:52:22;7.13;;;5.63;;
44899;SDS011;30628;51.188;6.770;2023-06-22T01:54:48;6.38;;;5.20;;
44899;SDS011;30628;51.188;6.770;2023-06-22T01:57:14;6.40;;;5.65;;
44899;SDS011;30628;51.188;6.770;2023-06-22T02:02:43;6.60;;;5.93;;
44899;SDS011;30628;51.188;6.770;2023-06-22T02:05:19;6.63;;;6.03;;
44899;SDS011;30628;51.188;6.770;2023-06-22T02:10:22;6.07;;;5.47;;
44899;SDS011;30628;51.188;6.770;2023-06-22T02:12:50;5.50;;;5.00;;
44899;SDS011;30628;51.188;6.770;2023-06-22T02:15:17;7.78;;;6.00;;
44899;SDS011;30628;51.188;6.770;2023-06-22T02:17:44;5.68;;;5.18;;
44899;SDS011;30628;51.188;6.770;2023-06-22T02:20:13;6.70;;;5.93;;
44899;SDS011;30628;51.188;6.770;2023-06-22T02:22:40;6.43;;;5.82;;
44899;SDS011;30628;51.188;6.770;2023-06-22T02:25:06;7.28;;;6.30;;
44899;SDS011;30628;51.188;6.770;2023-06-22T02:27:33;7.50;;;6.78;;
44899;SDS011;30628;51.188;6.770;2023-06-22T02:29:59;7.13;;;5.90;;
44899;SDS011;30628;51.188;6.770;2023-06-22T02:32:25;8.75;;;6.72;;
44899;SDS011;30628;51.188;6.770;2023-06-22T02:34:52;7.30;;;6.60;;
44899;SDS011;30628;51.188;6.770;2023-06-22T02:37:18;7.38;;;6.55;;
44899;SDS011;30628;51.188;6.770;2023-06-22T02:39:45;7.90;;;6.50;;
44899;SDS011;30628;51.188;6.770;2023-06-22T02:42:11;9.35;;;6.70;;
44899;SDS011;30628;51.188;6.770;2023-06-22T02:44:37;8.57;;;7.15;;
44899;SDS011;30628;51.188;6.770;2023-06-22T02:47:03;8.00;;;6.82;;
44899;SDS011;30628;51.188;6.770;2023-06-22T02:49:30;7.60;;;6.80;;
44899;SDS011;30628;51.188;6.770;2023-06-22T02:51:56;7.85;;;7.05;;
44899;SDS011;30628;51.188;6.770;2023-06-22T02:54:23;7.22;;;6.60;;
44899;SDS011;30628;51.188;6.770;2023-06-22T02:56:49;8.05;;;7.05;;
44899;SDS011;30628;51.188;6.770;2023-06-22T02:59:16;7.15;;;6.55;;
44899;SDS011;30628;51.188;6.770;2023-06-22T03:01:42;7.15;;;6.43;;
44899;SDS011;30628;51.188;6.770;2023-06-22T03:04:08;8.13;;;6.60;;
44899;SDS011;30628;51.188;6.770;2023-06-22T03:06:35;7.18;;;6.50;;
44899;SDS011;30628;51.188;6.770;2023-06-22T03:09:03;8.10;;;7.28;;
44899;SDS011;30628;51.188;6.770;2023-06-22T03:11:30;6.82;;;6.13;;
44899;SDS011;30628;51.188;6.770;2023-06-22T03:13:57;7.25;;;6.55;;
44899;SDS011;30628;51.188;6.770;2023-06-22T03:16:23;8.68;;;6.70;;
44899;SDS011;30628;51.188;6.770;2023-06-22T03:18:49;6.43;;;5.82;;
44899;SDS011;30628;51.188;6.770;2023-06-22T03:21:16;7.00;;;6.18;;
44899;SDS011;30628;51.188;6.770;2023-06-22T03:23:42;8.32;;;7.05;;
44899;SDS011;30628;51.188;6.770;2023-06-22T03:26:09;5.00;;;4.47;;
44899;SDS011;30628;51.188;6.770;2023-06-22T03:28:36;8.65;;;6.97;;
44899;SDS011;30628;51.188;6.770;2023-06-22T03:31:03;6.28;;;5.65;;
44899;SDS011;30628;51.188;6.770;2023-06-22T03:33:32;8.27;;;7.47;;
44899;SDS011;30628;51.188;6.770;2023-06-22T03:35:58;8.32;;;7.60;;
44899;SDS011;30628;51.188;6.770;2023-06-22T03:38:24;8.82;;;7.53;;
44899;SDS011;30628;51.188;6.770;2023-06-22T03:40:50;8.48;;;6.88;;
44899;SDS011;30628;51.188;6.770;2023-06-22T03:43:16;8.07;;;7.07;;
44899;SDS011;30628;51.188;6.770;2023-06-22T03:45:43;9.70;;;7.72;;
44899;SDS011;30628;51.188;6.770;2023-06-22T03:48:11;7.70;;;6.95;;
44899;SDS011;30628;51.188;6.770;2023-06-22T03:50:38;7.53;;;6.93;;
44899;SDS011;30628;51.188;6.770;2023-06-22T03:53:04;8.13;;;7.35;;
44899;SDS011;30628;51.188;6.770;2023-06-22T03:55:30;9.20;;;7.45;;
44899;SDS011;30628;51.188;6.770;2023-06-22T03:57:56;9.90;;;7.60;;
44899;SDS011;30628;51.188;6.770;2023-06-22T04:00:23;9.77;;;8.30;;
44899;SDS011;30628;51.188;6.770;2023-06-22T04:02:52;10.88;;;7.80;;
44899;SDS011;30628;51.188;6.770;2023-06-22T04:05:18;7.90;;;7.07;;
44899;SDS011;30628;51.188;6.770;2023-06-22T04:07:44;8.18;;;7.40;;
44899;SDS011;30628;51.188;6.770;2023-06-22T04:10:10;8.35;;;7.38;;
44899;SDS011;30628;51.188;6.770;2023-06-22T04:12:37;7.28;;;6.50;;
44899;SDS011;30628;51.188;6.770;2023-06-22T04:15:03;8.40;;;7.60;;
44899;SDS011;30628;51.188;6.770;2023-06-22T04:17:29;6.57;;;5.90;;
44899;SDS011;30628;51.188;6.770;2023-06-22T04:19:55;7.82;;;6.97;;
44899;SDS011;30628;51.188;6.770;2023-06-22T04:22:21;7.88;;;7.10;;
44899;SDS011;30628;51.188;6.770;2023-06-22T04:24:47;9.07;;;7.28;;
44899;SDS011;30628;51.188;6.770;2023-06-22T04:27:14;8.40;;;7.05;;
44899;SDS011;30628;51.188;6.770;2023-06-22T04:29:40;7.97;;;7.13;;
44899;SDS011;30628;51.188;6.770;2023-06-22T04:32:14;8.48;;;7.22;;
44899;SDS011;30628;51.188;6.770;2023-06-22T04:34:41;8.20;;;7.22;;
44899;SDS011;30628;51.188;6.770;2023-06-22T04:37:08;10.52;;;7.63;;
44899;SDS011;30628;51.188;6.770;2023-06-22T04:39:34;7.75;;;6.80;;
44899;SDS011;30628;51.188;6.770;2023-06-22T04:42:01;8.63;;;7.38;;
44899;SDS011;30628;51.188;6.770;2023-06-22T04:44:27;6.63;;;5.95;;
44899;SDS011;30628;51.188;6.770;2023-06-22T04:46:54;9.02;;;7.03;;
44899;SDS011;30628;51.188;6.770;2023-06-22T04:49:34;7.63;;;6.50;;
44899;SDS011;30628;51.188;6.770;2023-06-22T04:54:33;7.57;;;5.68;;
44899;SDS011;30628;51.188;6.770;2023-06-22T04:57:04;7.10;;;6.50;;
44899;SDS011;30628;51.188;6.770;2023-06-22T04:59:35;7.47;;;6.65;;
44899;SDS011;30628;51.188;6.770;2023-06-22T05:02:04;7.30;;;6.60;;
44899;SDS011;30628;51.188;6.770;2023-06-22T05:04:34;8.00;;;7.20;;
44899;SDS011;30628;51.188;6.770;2023-06-22T05:07:04;7.25;;;6.50;;
44899;SDS011;30628;51.188;6.770;2023-06-22T05:09:31;9.18;;;6.72;;
44899;SDS011;30628;51.188;6.770;2023-06-22T05:11:59;8.07;;;6.75;;
44899;SDS011;30628;51.188;6.770;2023-06-22T05:14:28;8.05;;;6.75;;
44899;SDS011;30628;51.188;6.770;2023-06-22T05:16:55;9.40;;;6.75;;
44899;SDS011;30628;51.188;6.770;2023-06-22T05:19:39;10.65;;;6.80;;
44899;SDS011;30628;51.188;6.770;2023-06-22T05:22:10;7.70;;;7.00;;
44899;SDS011;30628;51.188;6.770;2023-06-22T05:24:37;8.88;;;6.80;;
44899;SDS011;30628;51.188;6.770;2023-06-22T05:27:04;7.65;;;6.90;;
44899;SDS011;30628;51.188;6.770;2023-06-22T05:29:30;8.10;;;7.25;;
44899;SDS011;30628;51.188;6.770;2023-06-22T05:31:56;8.93;;;6.53;;
44899;SDS011;30628;51.188;6.770;2023-06-22T05:34:22;9.50;;;6.82;;
44899;SDS011;30628;51.188;6.770;2023-06-22T05:36:48;9.70;;;7.75;;
44899;SDS011;30628;51.188;6.770;2023-06-22T05:39:15;9.45;;;7.38;;
44899;SDS011;30628;51.188;6.770;2023-06-22T05:41:41;8.77;;;7.22;;
44899;SDS011;30628;51.188;6.770;2023-06-22T05:44:08;9.45;;;7.18;;
44899;SDS011;30628;51.188;6.770;2023-06-22T05:46:34;8.35;;;7.00;;
44899;SDS011;30628;51.188;6.770;2023-06-22T05:49:01;13.55;;;7.07;;
44899;SDS011;30628;51.188;6.770;2023-06-22T05:51:27;9.25;;;7.10;;
44899;SDS011;30628;51.188;6.770;2023-06-22T05:53:53;10.10;;;7.13;;
44899;SDS011;30628;51.188;6.770;2023-06-22T05:56:20;11.38;;;6.80;;
44899;SDS011;30628;51.188;6.770;2023-06-22T05:58:46;8.88;;;6.95;;
44899;SDS011;30628;51.188;6.770;2023-06-22T06:01:12;40.83;;;36.95;;
44899;SDS011;30628;51.188;6.770;2023-06-22T06:03:40;10.55;;;8.10;;
44899;SDS011;30628;51.188;6.770;2023-06-22T06:06:07;8.32;;;6.70;;
44899;SDS011;30628;51.188;6.770;2023-06-22T06:08:33;8.77;;;7.18;;
44899;SDS011;30628;51.188;6.770;2023-06-22T06:11:00;10.75;;;7.25;;
44899;SDS011;30628;51.188;6.770;2023-06-22T06:13:26;8.68;;;7.72;;
44899;SDS011;30628;51.188;6.770;2023-06-22T06:15:52;8.32;;;7.03;;
44899;SDS011;30628;51.188;6.770;2023-06-22T06:18:20;7.97;;;7.13;;
44899;SDS011;30628;51.188;6.770;2023-06-22T06:20:46;8.63;;;6.72;;
44899;SDS011;30628;51.188;6.770;2023-06-22T06:23:13;8.05;;;7.25;;
44899;SDS011;30628;51.188;6.770;2023-06-22T06:25:39;8.27;;;7.38;;
44899;SDS011;30628;51.188;6.770;2023-06-22T06:28:05;7.47;;;6.45;;
44899;SDS011;30628;51.188;6.770;2023-06-22T06:30:31;8.32;;;7.53;;
44899;SDS011;30628;51.188;6.770;2023-06-22T06:32:58;7.78;;;7.03;;
44899;SDS011;30628;51.188;6.770;2023-06-22T06:35:24;6.13;;;5.53;;
44899;SDS011;30628;51.188;6.770;2023-06-22T06:37:50;9.85;;;7.35;;
44899;SDS011;30628;51.188;6.770;2023-06-22T06:40:17;28.48;;;25.65;;
44899;SDS011;30628;51.188;6.770;2023-06-22T06:42:51;38.65;;;34.75;;
44899;SDS011;30628;51.188;6.770;2023-06-22T06:47:44;10.27;;;9.10;;
44899;SDS011;30628;51.188;6.770;2023-06-22T06:50:11;10.88;;;9.85;;
44899;SDS011;30628;51.188;6.770;2023-06-22T06:52:38;11.20;;;9.23;;
44899;SDS011;30628;51.188;6.770;2023-06-22T06:55:04;10.70;;;9.55;;
44899;SDS011;30628;51.188;6.770;2023-06-22T06:57:40;16.67;;;11.65;;
44899;SDS011;30628;51.188;6.770;2023-06-22T07:00:07;15.82;;;11.68;;
44899;SDS011;30628;51.188;6.770;2023-06-22T07:02:38;17.05;;;10.73;;
44899;SDS011;30628;51.188;6.770;2023-06-22T07:05:08;9.73;;;8.65;;
44899;SDS011;30628;51.188;6.770;2023-06-22T07:07:35;11.40;;;9.45;;
44899;SDS011;30628;51.188;6.770;2023-06-22T07:10:01;26.90;;;9.93;;
44899;SDS011;30628;51.188;6.770;2023-06-22T07:12:27;12.02;;;9.18;;
44899;SDS011;30628;51.188;6.770;2023-06-22T07:14:53;11.80;;;10.13;;
44899;SDS011;30628;51.188;6.770;2023-06-22T07:17:19;10.00;;;8.95;;
44899;SDS011;30628;51.188;6.770;2023-06-22T07:19:46;6.03;;;5.45;;
44899;SDS011;30628;51.188;6.770;2023-06-22T07:22:12;12.45;;;11.05;;
44899;SDS011;30628;51.188;6.770;2023-06-22T07:24:38;11.68;;;10.48;;
44899;SDS011;30628;51.188;6.770;2023-06-22T07:27:04;13.07;;;11.32;;
44899;SDS011;30628;51.188;6.770;2023-06-22T07:29:32;11.63;;;10.40;;
44899;SDS011;30628;51.188;6.770;2023-06-22T07:31:58;14.18;;;11.15;;
44899;SDS011;30628;51.188;6.770;2023-06-22T07:34:26;12.70;;;11.20;;
44899;SDS011;30628;51.188;6.770;2023-06-22T07:36:52;13.02;;;11.73;;
44899;SDS011;30628;51.188;6.770;2023-06-22T07:39:18;10.93;;;9.80;;
44899;SDS011;30628;51.188;6.770;2023-06-22T07:41:47;11.73;;;9.93;;
44899;SDS011;30628;51.188;6.770;2023-06-22T07:44:13;10.75;;;8.75;;
44899;SDS011;30628;51.188;6.770;2023-06-22T07:46:40;13.43;;;11.73;;
44899;SDS011;30628;51.188;6.770;2023-06-22T07:49:06;15.80;;;13.20;;
44899;SDS011;30628;51.188;6.770;2023-06-22T07:51:33;9.90;;;8.20;;
44899;SDS011;30628;51.188;6.770;2023-06-22T07:54:00;13.52;;;11.60;;
44899;SDS011;30628;51.188;6.770;2023-06-22T07:56:26;14.55;;;13.05;;
44899;SDS011;30628;51.188;6.770;2023-06-22T07:58:53;13.68;;;10.93;;
44899;SDS011;30628;51.188;6.770;2023-06-22T08:01:19;14.13;;;12.68;;
44899;SDS011;30628;51.188;6.770;2023-06-22T08:03:49;11.27;;;10.00;;
44899;SDS011;30628;51.188;6.770;2023-06-22T08:06:15;12.80;;;11.05;;
44899;SDS011;30628;51.188;6.770;2023-06-22T08:08:41;11.13;;;9.25;;
44899;SDS011;30628;51.188;6.770;2023-06-22T08:11:08;7.43;;;6.72;;
44899;SDS011;30628;51.188;6.770;2023-06-22T08:13:35;9.00;;;8.18;;
44899;SDS011;30628;51.188;6.770;2023-06-22T08:16:01;12.05;;;10.80;;
44899;SDS011;30628;51.188;6.770;2023-06-22T08:18:27;11.25;;;10.15;;
44899;SDS011;30628;51.188;6.770;2023-06-22T08:20:54;11.07;;;10.02;;
44899;SDS011;30628;51.188;6.770;2023-06-22T08:23:20;10.82;;;9.82;;
44899;SDS011;30628;51.188;6.770;2023-06-22T08:25:46;17.95;;;16.08;;
44899;SDS011;30628;51.188;6.770;2023-06-22T08:28:13;33.53;;;30.23;;
44899;SDS011;30628;51.188;6.770;2023-06-22T08:30:39;9.63;;;8.73;;
44899;SDS011;30628;51.188;6.770;2023-06-22T08:33:05;7.80;;;7.07;;
44899;SDS011;30628;51.188;6.770;2023-06-22T08:35:32;10.55;;;9.55;;
44899;SDS011;30628;51.188;6.770;2023-06-22T08:37:58;9.77;;;8.88;;
44899;SDS011;30628;51.188;6.770;2023-06-22T08:40:25;9.82;;;8.93;;
44899;SDS011;30628;51.188;6.770;2023-06-22T08:42:51;10.68;;;9.77;;
44899;SDS011;30628;51.188;6.770;2023-06-22T08:45:17;10.63;;;9.63;;
44899;SDS011;30628;51.188;6.770;2023-06-22T08:47:43;10.68;;;9.70;;
44899;SDS011;30628;51.188;6.770;2023-06-22T08:50:10;7.00;;;6.30;;
44899;SDS011;30628;51.188;6.770;2023-06-22T08:52:37;8.05;;;7.25;;
44899;SDS011;30628;51.188;6.770;2023-06-22T08:55:07;10.93;;;9.82;;
44899;SDS011;30628;51.188;6.770;2023-06-22T08:57:34;10.27;;;9.30;;
44899;SDS011;30628;51.188;6.770;2023-06-22T09:00:03;11.30;;;10.10;;
44899;SDS011;30628;51.188;6.770;2023-06-22T09:02:42;18.05;;;9.75;;
44899;SDS011;30628;51.188;6.770;2023-06-22T09:05:09;9.32;;;8.23;;
44899;SDS011;30628;51.188;6.770;2023-06-22T09:07:35;10.35;;;9.38;;
44899;SDS011;30628;51.188;6.770;2023-06-22T09:10:01;8.75;;;7.03;;
44899;SDS011;30628;51.188;6.770;2023-06-22T09:12:30;9.23;;;8.35;;
44899;SDS011;30628;51.188;6.770;2023-06-22T09:14:58;7.70;;;7.00;;
44899;SDS011;30628;51.188;6.770;2023-06-22T09:17:28;8.77;;;7.88;;
44899;SDS011;30628;51.188;6.770;2023-06-22T09:19:55;8.15;;;7.45;;
44899;SDS011;30628;51.188;6.770;2023-06-22T09:22:21;9.43;;;8.60;;
44899;SDS011;30628;51.188;6.770;2023-06-22T09:24:47;9.25;;;8.35;;
44899;SDS011;30628;51.188;6.770;2023-06-22T09:27:13;8.32;;;7.60;;
44899;SDS011;30628;51.188;6.770;2023-06-22T09:29:40;7.85;;;7.10;;
44899;SDS011;30628;51.188;6.770;2023-06-22T09:32:06;7.45;;;6.85;;
44899;SDS011;30628;51.188;6.770;2023-06-22T09:34:32;7.50;;;6.80;;
44899;SDS011;30628;51.188;6.770;2023-06-22T09:36:58;7.13;;;6.53;;
44899;SDS011;30628;51.188;6.770;2023-06-22T09:39:26;11.13;;;6.70;;
44899;SDS011;30628;51.188;6.770;2023-06-22T09:41:52;9.15;;;8.35;;
44899;SDS011;30628;51.188;6.770;2023-06-22T09:44:18;9.32;;;7.65;;
44899;SDS011;30628;51.188;6.770;2023-06-22T09:46:44;7.72;;;7.00;;
44899;SDS011;30628;51.188;6.770;2023-06-22T09:49:10;7.32;;;6.82;;
44899;SDS011;30628;51.188;6.770;2023-06-22T09:51:37;7.68;;;6.95;;
44899;SDS011;30628;51.188;6.770;2023-06-22T09:54:03;7.47;;;6.68;;
44899;SDS011;30628;51.188;6.770;2023-06-22T09:56:29;6.68;;;6.07;;
44899;SDS011;30628;51.188;6.770;2023-06-22T09:58:56;7.10;;;6.50;;
44899;SDS011;30628;51.188;6.770;2023-06-22T10:01:22;7.38;;;6.45;;
44899;SDS011;30628;51.188;6.770;2023-06-22T10:03:49;7.60;;;6.85;;
44899;SDS011;30628;51.188;6.770;2023-06-22T10:06:15;8.35;;;6.57;;
44899;SDS011;30628;51.188;6.770;2023-06-22T10:08:41;7.32;;;6.70;;
44899;SDS011;30628;51.188;6.770;2023-06-22T10:11:07;6.75;;;6.25;;
44899;SDS011;30628;51.188;6.770;2023-06-22T10:13:33;7.15;;;6.45;;
44899;SDS011;30628;51.188;6.770;2023-06-22T10:15:59;6.75;;;6.15;;
44899;SDS011;30628;51.188;6.770;2023-06-22T10:18:25;7.55;;;6.82;;
44899;SDS011;30628;51.188;6.770;2023-06-22T10:20:52;6.88;;;6.28;;
44899;SDS011;30628;51.188;6.770;2023-06-22T10:23:18;9.40;;;7.03;;
44899;SDS011;30628;51.188;6.770;2023-06-22T10:25:45;8.43;;;7.45;;
44899;SDS011;30628;51.188;6.770;2023-06-22T10:28:11;8.32;;;7.60;;
44899;SDS011;30628;51.188;6.770;2023-06-22T10:30:38;7.95;;;7.25;;
44899;SDS011;30628;51.188;6.770;2023-06-22T10:33:09;7.75;;;7.13;;
44899;SDS011;30628;51.188;6.770;2023-06-22T10:35:36;10.13;;;7.78;;
44899;SDS011;30628;51.188;6.770;2023-06-22T10:38:05;11.73;;;8.18;;
44899;SDS011;30628;51.188;6.770;2023-06-22T10:40:32;35.95;;;9.10;;
44899;SDS011;30628;51.188;6.770;2023-06-22T10:42:58;81.75;;;12.77;;
44899;SDS011;30628;51.188;6.770;2023-06-22T10:45:24;9.35;;;8.02;;
44899;SDS011;30628;51.188;6.770;2023-06-22T10:47:51;8.40;;;7.60;;
44899;SDS011;30628;51.188;6.770;2023-06-22T10:50:17;6.72;;;6.03;;
44899;SDS011;30628;51.188;6.770;2023-06-22T10:52:43;7.05;;;5.85;;
44899;SDS011;30628;51.188;6.770;2023-06-22T10:55:10;9.25;;;6.47;;
44899;SDS011;30628;51.188;6.770;2023-06-22T10:57:36;8.73;;;6.80;;
44899;SDS011;30628;51.188;6.770;2023-06-22T11:00:03;15.15;;;13.57;;
44899;SDS011;30628;51.188;6.770;2023-06-22T11:02:33;13.65;;;12.40;;
44899;SDS011;30628;51.188;6.770;2023-06-22T11:04:59;10.32;;;9.23;;
44899;SDS011;30628;51.188;6.770;2023-06-22T11:07:29;12.88;;;10.48;;
44899;SDS011;30628;51.188;6.770;2023-06-22T11:09:55;17.30;;;14.48;;
44899;SDS011;30628;51.188;6.770;2023-06-22T11:12:21;14.85;;;13.43;;
44899;SDS011;30628;51.188;6.770;2023-06-22T11:14:48;15.45;;;13.73;;
44899;SDS011;30628;51.188;6.770;2023-06-22T11:17:17;16.13;;;14.35;;
44899;SDS011;30628;51.188;6.770;2023-06-22T11:19:44;15.35;;;13.93;;
44899;SDS011;30628;51.188;6.770;2023-06-22T11:22:10;16.33;;;14.73;;
44899;SDS011;30628;51.188;6.770;2023-06-22T11:24:36;17.55;;;15.77;;
44899;SDS011;30628;51.188;6.770;2023-06-22T11:27:02;16.95;;;15.27;;
44899;SDS011;30628;51.188;6.770;2023-06-22T11:29:29;16.88;;;15.23;;
44899;SDS011;30628;51.188;6.770;2023-06-22T11:31:56;15.80;;;14.27;;
44899;SDS011;30628;51.188;6.770;2023-06-22T11:34:22;15.70;;;14.20;;
44899;SDS011;30628;51.188;6.770;2023-06-22T11:36:48;16.20;;;14.57;;
44899;SDS011;30628;51.188;6.770;2023-06-22T11:39:14;16.67;;;14.93;;
44899;SDS011;30628;51.188;6.770;2023-06-22T11:41:41;17.65;;;15.82;;
44899;SDS011;30628;51.188;6.770;2023-06-22T11:44:07;16.90;;;15.20;;
44899;SDS011;30628;51.188;6.770;2023-06-22T11:46:34;17.00;;;15.48;;
44899;SDS011;30628;51.188;6.770;2023-06-22T11:49:00;17.13;;;15.30;;
44899;SDS011;30628;51.188;6.770;2023-06-22T11:51:27;17.75;;;16.15;;
44899;SDS011;30628;51.188;6.770;2023-06-22T11:53:53;19.02;;;16.95;;
44899;SDS011;30628;51.188;6.770;2023-06-22T11:56:24;21.67;;;19.55;;
44899;SDS011;30628;51.188;6.770;2023-06-22T11:58:50;22.27;;;20.17;;
44899;SDS011;30628;51.188;6.770;2023-06-22T12:01:16;20.55;;;18.45;;
44899;SDS011;30628;51.188;6.770;2023-06-22T12:03:42;18.95;;;17.20;;
44899;SDS011;30628;51.188;6.770;2023-06-22T12:06:09;17.88;;;16.05;;
44899;SDS011;30628;51.188;6.770;2023-06-22T12:08:35;21.80;;;19.83;;
44899;SDS011;30628;51.188;6.770;2023-06-22T12:11:01;36.33;;;33.13;;
44899;SDS011;30628;51.188;6.770;2023-06-22T12:13:27;21.50;;;19.60;;
44899;SDS011;30628;51.188;6.770;2023-06-22T12:15:54;18.55;;;16.73;;
44899;SDS011;30628;51.188;6.770;2023-06-22T12:18:20;17.52;;;15.70;;
44899;SDS011;30628;51.188;6.770;2023-06-22T12:20:47;18.73;;;16.80;;
44899;SDS011;30628;51.188;6.770;2023-06-22T12:23:14;18.83;;;16.95;;
44899;SDS011;30628;51.188;6.770;2023-06-22T12:25:40;20.58;;;18.65;;
44899;SDS011;30628;51.188;6.770;2023-06-22T12:28:06;19.40;;;17.63;;
44899;SDS011;30628;51.188;6.770;2023-06-22T12:30:33;23.75;;;21.25;;
44899;SDS011;30628;51.188;6.770;2023-06-22T12:32:59;23.58;;;21.05;;
44899;SDS011;30628;51.188;6.770;2023-06-22T12:35:25;22.25;;;20.08;;
44899;SDS011;30628;51.188;6.770;2023-06-22T12:37:51;26.17;;;23.67;;
44899;SDS011;30628;51.188;6.770;2023-06-22T12:40:18;24.25;;;22.00;;
44899;SDS011;30628;51.188;6.770;2023-06-22T12:42:45;24.70;;;22.40;;
44899;SDS011;30628;51.188;6.770;2023-06-22T12:45:11;24.25;;;22.05;;
44899;SDS011;30628;51.188;6.770;2023-06-22T12:47:37;24.75;;;22.58;;
44899;SDS011;30628;51.188;6.770;2023-06-22T12:50:03;27.33;;;24.77;;
44899;SDS011;30628;51.188;6.770;2023-06-22T12:52:30;21.73;;;19.70;;
44899;SDS011;30628;51.188;6.770;2023-06-22T12:54:57;28.40;;;25.77;;
44899;SDS011;30628;51.188;6.770;2023-06-22T12:57:24;26.10;;;23.70;;
44899;SDS011;30628;51.188;6.770;2023-06-22T12:59:51;27.55;;;24.95;;
44899;SDS011;30628;51.188;6.770;2023-06-22T13:02:17;28.75;;;26.15;;
44899;SDS011;30628;51.188;6.770;2023-06-22T13:04:43;29.10;;;26.52;;
44899;SDS011;30628;51.188;6.770;2023-06-22T13:07:09;29.17;;;26.45;;
44899;SDS011;30628;51.188;6.770;2023-06-22T13:09:36;31.65;;;28.65;;
44899;SDS011;30628;51.188;6.770;2023-06-22T13:12:02;28.33;;;25.80;;
44899;SDS011;30628;51.188;6.770;2023-06-22T13:14:29;25.58;;;23.30;;
44899;SDS011;30628;51.188;6.770;2023-06-22T13:16:55;28.92;;;26.35;;
44899;SDS011;30628;51.188;6.770;2023-06-22T13:19:21;28.63;;;26.00;;
44899;SDS011;30628;51.188;6.770;2023-06-22T13:21:47;28.45;;;25.85;;
44899;SDS011;30628;51.188;6.770;2023-06-22T13:24:13;24.92;;;22.65;;
44899;SDS011;30628;51.188;6.770;2023-06-22T13:26:39;26.05;;;23.52;;
44899;SDS011;30628;51.188;6.770;2023-06-22T13:29:06;29.17;;;26.52;;
44899;SDS011;30628;51.188;6.770;2023-06-22T13:31:32;25.98;;;23.48;;
44899;SDS011;30628;51.188;6.770;2023-06-22T13:33:58;27.85;;;25.35;;
44899;SDS011;30628;51.188;6.770;2023-06-22T13:36:24;28.02;;;25.52;;
44899;SDS011;30628;51.188;6.770;2023-06-22T13:38:50;27.05;;;24.63;;
44899;SDS011;30628;51.188;6.770;2023-06-22T13:41:16;26.48;;;24.08;;
44899;SDS011;30628;51.188;6.770;2023-06-22T13:43:42;25.50;;;23.30;;
44899;SDS011;30628;51.188;6.770;2023-06-22T13:46:09;27.20;;;24.63;;
44899;SDS011;30628;51.188;6.770;2023-06-22T13:48:35;26.80;;;24.40;;
44899;SDS011;30628;51.188;6.770;2023-06-22T13:51:01;27.95;;;25.40;;
44899;SDS011;30628;51.188;6.770;2023-06-22T13:53:27;27.90;;;25.23;;
44899;SDS011;30628;51.188;6.770;2023-06-22T13:55:53;28.50;;;25.92;;
44899;SDS011;30628;51.188;6.770;2023-06-22T13:58:19;29.20;;;26.52;;
44899;SDS011;30628;51.188;6.770;2023-06-22T14:00:45;29.52;;;26.83;;
44899;SDS011;30628;51.188;6.770;2023-06-22T14:03:12;26.60;;;24.15;;
44899;SDS011;30628;51.188;6.770;2023-06-22T14:05:41;28.95;;;26.42;;
44899;SDS011;30628;51.188;6.770;2023-06-22T14:08:08;22.88;;;20.80;;
44899;SDS011;30628;51.188;6.770;2023-06-22T14:10:34;22.65;;;20.55;;
44899;SDS011;30628;51.188;6.770;2023-06-22T14:13:00;23.15;;;21.15;;
44899;SDS011;30628;51.188;6.770;2023-06-22T14:15:27;22.85;;;20.73;;
44899;SDS011;30628;51.188;6.770;2023-06-22T14:17:53;23.52;;;21.42;;
44899;SDS011;30628;51.188;6.770;2023-06-22T14:20:19;22.05;;;20.15;;
44899;SDS011;30628;51.188;6.770;2023-06-22T14:22:45;22.85;;;20.70;;
44899;SDS011;30628;51.188;6.770;2023-06-22T14:25:11;23.15;;;21.00;;
44899;SDS011;30628;51.188;6.770;2023-06-22T14:27:37;21.77;;;19.77;;
44899;SDS011;30628;51.188;6.770;2023-06-22T14:30:04;21.92;;;20.02;;
44899;SDS011;30628;51.188;6.770;2023-06-22T14:32:30;21.50;;;19.55;;
44899;SDS011;30628;51.188;6.770;2023-06-22T14:34:56;21.73;;;19.52;;
44899;SDS011;30628;51.188;6.770;2023-06-22T14:37:30;21.83;;;19.70;;
44899;SDS011;30628;51.188;6.770;2023-06-22T14:39:56;21.27;;;19.27;;
44899;SDS011;30628;51.188;6.770;2023-06-22T14:42:22;22.80;;;20.67;;
44899;SDS011;30628;51.188;6.770;2023-06-22T14:44:49;23.98;;;21.88;;
44899;SDS011;30628;51.188;6.770;2023-06-22T14:47:15;23.80;;;21.50;;
44899;SDS011;30628;51.188;6.770;2023-06-22T14:49:43;23.33;;;21.33;;
44899;SDS011;30628;51.188;6.770;2023-06-22T14:52:10;22.65;;;20.65;;
44899;SDS011;30628;51.188;6.770;2023-06-22T14:54:36;24.25;;;21.95;;
44899;SDS011;30628;51.188;6.770;2023-06-22T14:57:02;23.10;;;21.00;;
44899;SDS011;30628;51.188;6.770;2023-06-22T14:59:28;22.17;;;20.27;;